Latest Weather Observations for West Wyalong

IDN60801

Issued at 4:35 pm EST Tuesday 2 September 2014 (issued every 30 minutes, with the page automatically refreshed every 10 minutes)

About weather observations | Map of weather stations | Latest weather observations for NSW | Other Formats
Station Details ID: 050017 Name: WEST WYALONG AIRPORT AWS Lat: -33.94 Lon: 147.20 Height: 257.0 m
Data from the previous 72 hours. | See also: Recent months for locations in New South Wales
Date/Time
EST
Temp
°C
App
Temp
°C
Dew
Point
Rel
Hum
%
Delta-T
°C
Wind Press
QNH
hPa
Press
MSL
hPa
Rain
since 9 am
mm
Dir
 
Spd
km/h
Gust
km/h
Spd
kts
Gust
kts
02/04:30pm 14.0 4.5 2.0 44 5.3 SW 41 56 22 30 1014.9 - 0.0
02/04:13pm 14.3 6.3 1.9 43 5.5 SW 33 52 18 28 1014.8 - 0.0
02/04:00pm 14.6 6.0 2.5 44 5.4 SW 37 50 20 27 1014.6 - 0.0
02/03:34pm 15.4 6.8 2.6 42 5.8 SW 37 56 20 30 1014.5 - 0.0
02/03:30pm 15.7 6.8 2.8 42 5.9 SW 39 50 21 27 1014.3 - 0.0
02/03:00pm 15.2 6.7 3.4 45 5.4 SW 37 52 20 28 1014.2 1014.1 0.0
02/02:54pm 15.9 7.9 3.7 44 5.7 SW 35 54 19 29 1014.2 - 0.0
02/02:30pm 14.9 6.0 2.8 44 5.5 SW 39 52 21 28 1014.2 - 0.0
02/02:00pm 14.8 6.8 3.6 47 5.2 SW 35 48 19 26 1014.1 - 0.0
02/01:48pm 15.1 7.2 4.2 48 5.1 WSW 35 54 19 29 1014.0 - 0.0
02/01:30pm 14.7 6.3 3.8 48 5.1 SW 37 48 20 26 1014.2 - 0.0
02/01:00pm 14.0 6.1 4.3 52 4.5 WSW 35 46 19 25 1014.3 - 0.0
02/12:30pm 15.1 7.7 4.8 50 4.9 SW 33 50 18 27 1014.6 - 0.0
02/12:22pm 13.7 6.2 4.3 53 4.4 SW 33 52 18 28 1014.6 - 0.0
02/12:00pm 14.4 6.5 4.1 50 4.8 SW 35 48 19 26 1014.6 1014.5 0.0
02/11:30am 14.0 5.8 4.9 54 4.3 SW 37 54 20 29 1014.7 - 0.0
02/11:00am 13.1 5.3 5.0 58 3.8 WSW 35 44 19 24 1015.1 - 0.0
02/10:30am 12.8 6.5 5.9 63 3.3 SW 28 39 15 21 1015.3 - 0.0
02/10:00am 11.4 5.2 6.3 71 2.4 SW 28 39 15 21 1015.2 - 0.0
02/09:30am 11.1 5.4 6.8 75 2.1 SW 26 41 14 22 1015.2 - 0.0
02/09:00am 9.6 3.4 6.1 79 1.6 SW 28 37 15 20 1015.1 1015.0 1.2
02/08:30am 8.6 2.9 6.7 88 0.9 WSW 26 39 14 21 1015.0 - 1.2
02/08:00am 8.2 3.6 6.5 89 0.8 WSW 20 28 11 15 1014.7 - 1.2
02/07:30am 7.5 3.0 6.3 92 0.6 SW 19 24 10 13 1014.6 - 1.2
02/07:00am 8.0 3.9 6.3 89 0.8 SW 17 22 9 12 1014.2 - 1.2
02/06:30am 8.1 2.1 6.9 92 0.6 SW 28 39 15 21 1013.8 - 1.2
02/06:00am 8.8 3.8 8.0 95 0.4 WSW 24 30 13 16 1013.0 1013.0 1.2
02/05:30am 8.6 4.5 8.0 96 0.3 WSW 19 28 10 15 1012.7 - 1.2
02/05:00am 9.0 4.1 8.5 97 0.2 WSW 24 30 13 16 1012.7 - 1.2
02/04:30am 9.1 4.3 9.0 99 0.0 WSW 24 33 13 18 1012.3 - 1.2
02/04:00am 9.4 5.5 9.3 99 0.1 WSW 20 30 11 16 1012.4 - 1.2
02/03:30am 9.5 6.2 9.4 99 0.1 WSW 17 22 9 12 1012.5 - 1.0
02/03:00am 9.5 6.9 9.4 99 0.1 WSW 13 20 7 11 1012.6 1012.5 1.0
02/02:30am 9.5 6.9 9.4 99 0.1 WSW 13 17 7 9 1012.4 - 1.0
02/02:00am 9.6 7.4 9.5 99 0.1 SSW 11 15 6 8 1012.3 - 1.0
02/01:30am 9.6 7.8 9.5 99 0.1 WSW 9 13 5 7 1013.2 - 1.0
02/01:00am 9.7 6.7 9.4 98 0.2 S 15 20 8 11 1012.8 - 1.0
02/12:30am 10.2 7.3 9.7 97 0.3 WSW 15 20 8 11 1013.0 - 0.8
02/12:00am 10.3 6.5 9.2 93 0.6 W 19 24 10 13 1013.5 1013.4 0.6
 
Date/Time
EST
Temp
°C
App
Temp
°C
Dew
Point
Rel
Hum
%
Delta-T
°C
Wind Press
QNH
hPa
Press
MSL
hPa
Rain
since 9 am
mm
Dir
 
Spd
km/h
Gust
km/h
Spd
kts
Gust
kts
01/11:30pm 11.3 8.5 8.7 84 1.3 WSW 13 19 7 10 1013.6 - 0.0
01/11:00pm 11.7 8.7 7.8 77 1.9 WSW 13 20 7 11 1013.5 - 0.0
01/10:30pm 11.8 8.8 7.7 76 2.0 SW 13 17 7 9 1013.4 - 0.0
01/10:00pm 12.0 8.6 7.7 75 2.1 SW 15 20 8 11 1013.3 - 0.0
01/09:30pm 12.2 8.8 7.7 74 2.2 SW 15 22 8 12 1013.5 - 0.0
01/09:00pm 12.8 7.7 7.7 71 2.5 SW 24 32 13 17 1013.3 1013.2 0.0
01/08:30pm 13.8 7.4 7.1 64 3.3 SW 30 44 16 24 1012.8 - 0.0
01/08:00pm 14.5 7.9 6.1 57 4.1 SW 30 43 16 23 1011.8 - 0.0
01/07:30pm 14.9 9.0 3.7 47 5.2 SW 24 33 13 18 1011.6 - 0.0
01/07:00pm 16.3 9.4 2.3 39 6.4 WSW 28 41 15 22 1011.1 - 0.0
01/06:58pm 16.5 9.5 2.2 38 6.5 WSW 28 41 15 22 1010.9 - 0.0
01/06:30pm 17.3 14.5 2.9 38 6.7 NNW 7 11 4 6 1010.1 - 0.0
01/06:00pm 18.0 14.7 2.7 36 7.1 NNW 9 11 5 6 1010.3 1010.2 0.0
01/05:30pm 19.2 15.9 2.6 33 7.8 N 9 13 5 7 1010.3 - 0.0
01/05:00pm 20.2 16.1 2.1 30 8.5 NNW 13 17 7 9 1010.5 - 0.0
01/04:30pm 21.1 16.5 1.4 27 9.1 NNW 15 22 8 12 1010.5 - 0.0
01/04:00pm 21.5 16.6 1.7 27 9.3 NNW 17 30 9 16 1010.5 - 0.0
01/03:30pm 21.6 17.0 1.8 27 9.3 NW 15 20 8 11 1010.8 - 0.0
01/03:00pm 22.0 16.5 1.6 26 9.6 NW 20 30 11 16 1011.0 1010.9 0.0
01/02:30pm 21.9 16.3 1.5 26 9.6 NW 20 32 11 17 1011.2 - 0.0
01/02:00pm 23.7 18.5 3.6 27 9.9 NNW 20 33 11 18 1011.4 - 0.0
01/01:30pm 23.0 17.2 2.5 26 9.9 NNW 22 30 12 16 1012.2 - 0.0
01/01:00pm 21.4 15.7 3.1 30 8.8 NNW 22 32 12 17 1012.7 - 0.0
01/12:30pm 20.8 15.1 4.8 35 7.9 NW 24 35 13 19 1013.2 - 0.0
01/12:00pm 21.3 16.5 5.6 36 7.9 NNW 20 30 11 16 1013.8 1013.7 0.0
01/11:30am 19.8 14.7 4.3 36 7.5 NNW 20 33 11 18 1014.2 - 0.0
01/11:00am 20.1 15.5 6.4 41 7.0 NNW 20 30 11 16 1014.9 - 0.0
01/10:30am 18.6 14.1 6.8 46 6.0 NNW 20 30 11 16 1015.3 - 0.0
01/10:00am 17.7 13.1 6.3 47 5.7 NNW 20 32 11 17 1015.7 - 0.0
01/09:30am 16.6 12.0 6.7 52 4.9 NNW 20 32 11 17 1015.8 - 0.0
01/09:00am 15.2 11.6 6.7 57 4.2 N 15 26 8 14 1016.1 1016.1 0.0
01/08:30am 13.8 10.2 6.9 63 3.4 N 15 20 8 11 1016.2 - 0.0
01/08:00am 10.3 7.9 7.0 80 1.6 NNE 9 15 5 8 1016.2 - 0.0
01/07:30am 8.6 6.5 5.9 83 1.2 N 6 7 3 4 1016.4 - 0.0
01/07:00am 8.1 5.4 5.7 85 1.1 N 9 11 5 6 1016.2 - 0.0
01/06:30am 7.3 4.4 4.8 84 1.1 N 9 11 5 6 1016.1 - 0.0
01/06:00am 6.4 3.8 6.3 99 0.0 N 9 13 5 7 1016.1 1016.1 0.0
01/05:30am 3.6 2.2 3.5 99 0.0 CALM 0 0 0 0 1016.1 - 0.0
01/05:00am 3.5 0.8 2.8 95 0.3 N 6 7 3 4 1016.1 - 0.0
01/04:30am 4.5 3.2 4.2 98 0.1 CALM 0 0 0 0 1015.9 - 0.0
01/04:00am 3.9 2.4 3.0 94 0.4 CALM 0 0 0 0 1015.8 - 0.0
01/03:30am 4.4 3.0 3.8 96 0.3 CALM 0 0 0 0 1015.7 - 0.0
01/03:00am 4.7 3.4 4.0 95 0.3 CALM 0 0 0 0 1015.8 1015.7 0.0
01/02:30am 4.7 3.3 3.7 93 0.4 CALM 0 0 0 0 1016.0 - 0.0
01/02:00am 5.2 3.9 4.2 93 0.4 CALM 0 0 0 0 1016.2 - 0.0
01/01:30am 5.6 4.4 4.6 93 0.4 CALM 0 0 0 0 1016.4 - 0.0
01/01:00am 5.5 4.2 4.2 91 0.6 CALM 0 0 0 0 1016.6 - 0.0
01/12:30am 6.1 4.9 4.4 89 0.7 CALM 0 2 0 1 1016.7 - 0.0
01/12:00am 6.3 5.1 4.6 89 0.7 CALM 0 0 0 0 1016.7 1016.7 0.0
 
Date/Time
EST
Temp
°C
App
Temp
°C
Dew
Point
Rel
Hum
%
Delta-T
°C
Wind Press
QNH
hPa
Press
MSL
hPa
Rain
since 9 am
mm
Dir
 
Spd
km/h
Gust
km/h
Spd
kts
Gust
kts
31/11:30pm 6.8 5.7 5.1 89 0.8 CALM 0 0 0 0 1016.9 - 0.0
31/11:00pm 6.4 5.2 4.7 89 0.7 CALM 0 0 0 0 1017.3 - 0.0
31/10:30pm 5.9 4.5 3.7 86 0.9 CALM 0 0 0 0 1017.5 - 0.0
31/10:00pm 6.2 4.9 3.9 85 1.0 CALM 0 0 0 0 1017.9 - 0.0
31/09:30pm 7.1 5.9 4.6 84 1.1 CALM 0 0 0 0 1018.0 - 0.0
31/09:00pm 7.1 5.8 3.9 80 1.4 CALM 0 0 0 0 1018.2 1018.4 0.0
31/08:30pm 7.8 6.6 4.4 79 1.5 CALM 0 0 0 0 1018.2 - 0.0
31/08:00pm 8.5 7.3 4.7 77 1.7 CALM 0 0 0 0 1018.3 - 0.0
31/07:30pm 9.8 8.2 4.6 70 2.4 NE 2 7 1 4 1018.1 - 0.0
31/07:00pm 10.7 8.7 4.6 66 2.8 ENE 4 11 2 6 1017.9 - 0.0
31/06:30pm 14.6 12.1 4.9 52 4.6 N 7 7 4 4 1017.6 - 0.0
31/06:00pm 16.0 13.5 5.0 48 5.3 N 7 9 4 5 1017.4 1017.6 0.0
31/05:30pm 18.3 15.9 5.2 42 6.4 N 7 11 4 6 1017.3 - 0.0
31/05:00pm 19.2 16.0 5.3 40 6.9 N 11 15 6 8 1017.3 - 0.0
31/04:30pm 19.7 17.5 5.4 39 7.1 N 6 15 3 8 1017.3 - 0.0
31/04:00pm 20.3 17.5 5.1 37 7.5 NNW 9 15 5 8 1017.1 - 0.0
31/03:30pm 19.8 17.6 6.2 41 6.9 SW 7 17 4 9 1017.5 - 0.0
31/03:00pm 19.8 17.1 5.8 40 7.0 NNE 9 17 5 9 1017.8 1018.0 0.0
31/02:30pm 19.8 17.5 5.8 40 7.0 NW 7 15 4 8 1018.0 - 0.0
31/02:00pm 19.9 17.0 6.6 42 6.8 N 11 19 6 10 1018.3 - 0.0
31/01:30pm 19.5 17.5 6.9 44 6.4 SW 7 13 4 7 1018.6 - 0.0
31/01:00pm 19.2 17.1 6.7 44 6.3 N 7 15 4 8 1019.2 - 0.0
31/12:30pm 18.8 15.2 6.9 46 6.1 NNE 15 22 8 12 1019.7 - 0.0
31/12:00pm 17.2 14.5 7.3 52 5.0 N 11 19 6 10 1020.3 1020.6 0.0
31/11:30am 18.1 15.5 7.8 51 5.3 NNE 11 17 6 9 1020.9 - 0.0
31/11:00am 18.0 16.0 8.6 54 4.9 NNE 9 15 5 8 1021.5 - 0.0
31/10:30am 16.9 14.8 8.3 57 4.4 N 9 15 5 8 1022.0 - 0.0
31/10:00am 15.6 13.0 7.6 59 4.0 NNE 11 13 6 7 1022.2 - 0.0
31/09:30am 14.5 12.7 8.0 65 3.3 N 7 9 4 5 1022.4 - 0.0
31/09:00am 11.9 11.0 7.8 76 2.0 SSE 2 7 1 4 1022.4 1022.6 0.0
31/08:30am 10.2 9.7 7.8 85 1.2 CALM 0 7 0 4 1022.3 - 0.0
31/08:00am 8.2 7.8 8.1 99 0.0 CALM 0 0 0 0 1022.2 - 0.0
31/07:30am 5.0 3.9 4.9 99 0.0 CALM 0 0 0 0 1022.2 - 0.0
31/07:00am 2.0 0.3 1.9 99 0.0 CALM 0 0 0 0 1021.9 - 0.0
31/06:30am 1.3 -0.5 1.2 99 0.0 CALM 0 0 0 0 1021.6 - 0.0
31/06:00am 2.1 0.4 2.0 99 0.0 CALM 0 0 0 0 1021.1 1021.4 0.0
31/05:30am 2.2 0.5 2.1 99 0.0 CALM 0 0 0 0 1020.9 - 0.0
31/05:00am 2.3 0.7 2.2 99 0.0 CALM 0 0 0 0 1020.7 - 0.0
31/04:30am 2.2 0.5 1.9 98 0.1 CALM 0 0 0 0 1020.6 - 0.0
31/04:00am 2.8 1.2 2.7 99 0.0 CALM 0 0 0 0 1020.7 - 0.0
31/03:30am 2.4 0.7 1.7 95 0.3 CALM 0 0 0 0 1021.0 - 0.0
31/03:00am 2.9 1.3 2.3 96 0.2 CALM 0 0 0 0 1021.1 1021.4 0.0
31/02:30am 2.8 1.1 1.9 94 0.4 CALM 0 0 0 0 1021.4 - 0.0
31/02:00am 3.0 1.3 2.1 94 0.4 CALM 0 0 0 0 1021.7 - 0.0
31/01:30am 3.5 1.9 2.5 93 0.4 CALM 0 0 0 0 1022.0 - 0.0
31/01:00am 3.4 1.8 2.2 92 0.5 CALM 0 0 0 0 1022.2 - 0.0
31/12:30am 3.8 2.2 2.6 92 0.5 CALM 0 0 0 0 1022.4 - 0.0
31/12:00am 3.9 2.3 2.6 91 0.5 CALM 0 0 0 0 1022.4 1022.6 0.0
 
Date/Time
EST
Temp
°C
App
Temp
°C
Dew
Point
Rel
Hum
%
Delta-T
°C
Wind Press
QNH
hPa
Press
MSL
hPa
Rain
since 9 am
mm
Dir
 
Spd
km/h
Gust
km/h
Spd
kts
Gust
kts
30/11:30pm 4.5 3.1 3.3 92 0.5 CALM 0 0 0 0 1022.6 - 0.0
30/11:00pm 4.7 3.2 3.0 89 0.7 CALM 0 0 0 0 1022.7 - 0.0
30/10:30pm 4.9 3.4 3.2 89 0.7 CALM 0 0 0 0 1022.8 - 0.0
30/10:00pm 5.4 4.0 3.4 87 0.8 CALM 0 0 0 0 1022.9 - 0.0
30/09:30pm 5.3 3.8 3.2 86 0.9 CALM 0 0 0 0 1023.0 - 0.0
30/09:00pm 6.0 4.6 3.5 84 1.1 CALM 0 0 0 0 1023.0 1023.3 0.0
30/08:30pm 6.5 5.1 3.7 82 1.2 CALM 0 0 0 0 1023.0 - 0.0
30/08:00pm 7.5 6.2 4.3 80 1.4 CALM 0 0 0 0 1023.0 - 0.0
30/07:30pm 8.2 7.0 4.4 77 1.7 CALM 0 0 0 0 1022.9 - 0.0
30/07:00pm 9.3 8.1 4.5 72 2.2 CALM 0 0 0 0 1022.7 - 0.0
30/06:30pm 10.9 9.7 4.4 64 3.0 CALM 0 0 0 0 1022.7 - 0.0
30/06:00pm 14.0 11.8 5.1 55 4.2 SE 6 7 3 4 1022.5 1022.7 0.0
30/05:30pm 16.0 13.6 5.3 49 5.2 SE 7 9 4 5 1022.5 - 0.0
30/05:00pm 17.5 13.7 4.1 41 6.4 SE 13 17 7 9 1022.4 - 0.0

Other Formats:

Comma delimited format used in spreadsheet applications
http://www.bom.gov.au/fwo/IDN60801/IDN60801.95709.axf

JavaScript Object Notation format (JSON) in row-major order
http://www.bom.gov.au/fwo/IDN60801/IDN60801.95709.json